BAW64W KLAX-EGLL
Flight info
| Callsign | BAW64W |
|---|---|
| Flight time | N/A |
| Altitude | 33000 |
| Route | ORCKA5 BEALE DCT EEVUN DCT BCE DCT MBW DCT RAP DCT KP06A DCT MISAX/N0497F350 DCT PELEE DCT BROME DCT LOMSI/M086F360 NATU SOVED/N0494F370 DCT NIBOG DCT NIPIT DCT BOFUM Q37 MALUD Q38 NUGRA NUGRA2H |
| Aircraft | B77W/H-SDE1E2E3FGHIJ2J3J4J5M1RWXY/LB1D1 |
Departure
| Time | 2026-04-21 20:55 |
|---|---|
| Airport | Los Angeles International Airport (KLAX) |
Arrival
| Time | N/A |
|---|---|
| Airport | London Heathrow Airport (EGLL) |
| Time | Latitude | Longitude | Altitude | Speed | Heading |
|---|---|---|---|---|---|
| 2026-04-21 20:23 | 33.94526 | -118.41160 | 130 ft | 0 kts | 97° |
| 2026-04-21 20:34 | 33.94526 | -118.41161 | 130 ft | 0 kts | 97° |
| 2026-04-21 20:45 | 33.94527 | -118.41169 | 130 ft | 3 kts | 96° |
| 2026-04-21 20:45 | 33.94529 | -118.41196 | 128 ft | 3 kts | 96° |
| 2026-04-21 20:45 | 33.94531 | -118.41224 | 125 ft | 3 kts | 95° |
| 2026-04-21 20:45 | 33.94533 | -118.41244 | 125 ft | 2 kts | 62° |
| 2026-04-21 20:46 | 33.94522 | -118.41264 | 125 ft | 3 kts | 34° |
| 2026-04-21 20:46 | 33.94503 | -118.41272 | 125 ft | 2 kts | 3° |
| 2026-04-21 20:46 | 33.94488 | -118.41274 | 125 ft | 0 kts | 12° |
| 2026-04-21 20:46 | 33.94486 | -118.41274 | 125 ft | 3 kts | 12° |
| 2026-04-21 20:49 | 33.94487 | -118.41274 | 125 ft | 1 kts | 12° |
| 2026-04-21 20:49 | 33.94511 | -118.41268 | 125 ft | 6 kts | 11° |
| 2026-04-21 20:49 | 33.94575 | -118.41268 | 125 ft | 12 kts | 353° |
| 2026-04-21 20:50 | 33.94658 | -118.41281 | 126 ft | 12 kts | 353° |
| 2026-04-21 20:50 | 33.94742 | -118.41292 | 127 ft | 12 kts | 358° |
| 2026-04-21 20:50 | 33.94798 | -118.41229 | 126 ft | 12 kts | 73° |
| 2026-04-21 20:50 | 33.94811 | -118.41130 | 130 ft | 12 kts | 82° |
| 2026-04-21 20:51 | 33.94822 | -118.41029 | 128 ft | 12 kts | 84° |
| 2026-04-21 20:51 | 33.94831 | -118.40935 | 126 ft | 11 kts | 80° |
| 2026-04-21 20:51 | 33.94841 | -118.40843 | 130 ft | 11 kts | 82° |
| 2026-04-21 20:51 | 33.94851 | -118.40752 | 128 ft | 11 kts | 83° |
| 2026-04-21 20:52 | 33.94860 | -118.40659 | 130 ft | 11 kts | 83° |
| 2026-04-21 20:52 | 33.94869 | -118.40569 | 129 ft | 11 kts | 82° |
| 2026-04-21 20:52 | 33.94880 | -118.40477 | 127 ft | 11 kts | 81° |
| 2026-04-21 20:52 | 33.94887 | -118.40407 | 128 ft | 11 kts | 84° |
| 2026-04-21 20:53 | 33.94889 | -118.40388 | 126 ft | 11 kts | 84° |
| 2026-04-21 20:53 | 33.94897 | -118.40297 | 127 ft | 11 kts | 83° |
| 2026-04-21 20:53 | 33.94907 | -118.40197 | 127 ft | 12 kts | 83° |
| 2026-04-21 20:54 | 33.94918 | -118.40099 | 126 ft | 12 kts | 82° |
| 2026-04-21 20:54 | 33.94928 | -118.40000 | 130 ft | 12 kts | 83° |
| 2026-04-21 20:54 | 33.94971 | -118.39921 | 125 ft | 12 kts | 20° |
| 2026-04-21 20:54 | 33.95034 | -118.39961 | 127 ft | 12 kts | 283° |
| 2026-04-21 20:55 | 33.95025 | -118.40113 | 130 ft | 46 kts | 264° |
| 2026-04-21 20:55 | 33.94945 | -118.40893 | 128 ft | 140 kts | 263° |
| 2026-04-21 20:55 | 33.94780 | -118.42367 | 385 ft | 190 kts | 261° |
| 2026-04-21 20:55 | 33.94576 | -118.43926 | 888 ft | 192 kts | 257° |
| 2026-04-21 20:56 | 33.94384 | -118.45610 | 1459 ft | 217 kts | 261° |
| 2026-04-21 20:56 | 33.94251 | -118.47461 | 1979 ft | 225 kts | 261° |
| 2026-04-21 20:56 | 33.94075 | -118.49340 | 2396 ft | 222 kts | 250° |
| 2026-04-21 20:56 | 33.93287 | -118.50891 | 2888 ft | 227 kts | 217° |
| 2026-04-21 20:57 | 33.91826 | -118.51712 | 3592 ft | 239 kts | 189° |
| 2026-04-21 20:57 | 33.90200 | -118.51724 | 4141 ft | 246 kts | 177° |
| 2026-04-21 20:57 | 33.88498 | -118.51459 | 4729 ft | 251 kts | 174° |
| 2026-04-21 20:57 | 33.86742 | -118.51128 | 5516 ft | 257 kts | 174° |
| 2026-04-21 20:58 | 33.85002 | -118.50632 | 6257 ft | 266 kts | 159° |
| 2026-04-21 20:58 | 33.83488 | -118.49242 | 7010 ft | 281 kts | 132° |
| 2026-04-21 20:58 | 33.82623 | -118.47108 | 7767 ft | 295 kts | 105° |
| 2026-04-21 20:58 | 33.82545 | -118.44635 | 8513 ft | 303 kts | 86° |
| 2026-04-21 20:59 | 33.82870 | -118.42077 | 9355 ft | 310 kts | 81° |
| 2026-04-21 20:59 | 33.83607 | -118.39599 | 9975 ft | 320 kts | 57° |
| 2026-04-21 20:59 | 33.85133 | -118.37649 | 10022 ft | 325 kts | 38° |
| 2026-04-21 20:59 | 33.86886 | -118.35931 | 10181 ft | 323 kts | 39° |
| 2026-04-21 21:00 | 33.88597 | -118.34221 | 10702 ft | 320 kts | 38° |
| 2026-04-21 21:00 | 33.90342 | -118.32471 | 11373 ft | 339 kts | 38° |
| 2026-04-21 21:00 | 33.92222 | -118.30573 | 12067 ft | 361 kts | 38° |
| 2026-04-21 21:00 | 33.94178 | -118.28584 | 12771 ft | 380 kts | 38° |
| 2026-04-21 21:01 | 33.96235 | -118.26478 | 13484 ft | 397 kts | 38° |
| 2026-04-21 21:01 | 33.98384 | -118.24267 | 14163 ft | 410 kts | 37° |
| 2026-04-21 21:01 | 34.00540 | -118.22038 | 14776 ft | 412 kts | 38° |
| 2026-04-21 21:01 | 34.02739 | -118.19760 | 15388 ft | 415 kts | 37° |
| 2026-04-21 21:02 | 34.04937 | -118.17484 | 16006 ft | 418 kts | 37° |
| 2026-04-21 21:02 | 34.07139 | -118.15207 | 16660 ft | 426 kts | 38° |
| 2026-04-21 21:02 | 34.09410 | -118.12860 | 17350 ft | 436 kts | 38° |
| 2026-04-21 21:02 | 34.11645 | -118.10310 | 18041 ft | 442 kts | 45° |
| 2026-04-21 21:03 | 34.13655 | -118.07483 | 18512 ft | 455 kts | 52° |
| 2026-04-21 21:03 | 34.15515 | -118.04276 | 18619 ft | 472 kts | 56° |
| 2026-04-21 21:03 | 34.17369 | -118.00909 | 18938 ft | 484 kts | 57° |
| 2026-04-21 21:03 | 34.19240 | -117.97494 | 19392 ft | 492 kts | 57° |
| 2026-04-21 21:04 | 34.21158 | -117.94020 | 19937 ft | 497 kts | 57° |
| 2026-04-21 21:04 | 34.23072 | -117.90571 | 20536 ft | 501 kts | 56° |
| 2026-04-21 21:04 | 34.25017 | -117.87100 | 20992 ft | 505 kts | 56° |
| 2026-04-21 21:04 | 34.26992 | -117.83586 | 21593 ft | 508 kts | 56° |
| 2026-04-21 21:05 | 34.28995 | -117.80014 | 22189 ft | 512 kts | 56° |
| 2026-04-21 21:05 | 34.30993 | -117.76449 | 22689 ft | 517 kts | 57° |
| 2026-04-21 21:05 | 34.33028 | -117.72803 | 23213 ft | 521 kts | 57° |
| 2026-04-21 21:05 | 34.34894 | -117.69068 | 23715 ft | 525 kts | 63° |
| 2026-04-21 21:06 | 34.36491 | -117.65085 | 24110 ft | 527 kts | 70° |
| 2026-04-21 21:06 | 34.37810 | -117.60995 | 24512 ft | 530 kts | 72° |
| 2026-04-21 21:06 | 34.38688 | -117.58204 | 24765 ft | 533 kts | 72° |
| 2026-04-21 21:06 | 34.40460 | -117.52590 | 25328 ft | 538 kts | 71° |
| 2026-04-21 21:07 | 34.41358 | -117.49777 | 25594 ft | 540 kts | 71° |
| 2026-04-21 21:07 | 34.43187 | -117.44112 | 26159 ft | 543 kts | 71° |
| 2026-04-21 21:07 | 34.44109 | -117.41275 | 26501 ft | 544 kts | 71° |
| 2026-04-21 21:07 | 34.45509 | -117.36972 | 26962 ft | 547 kts | 71° |
| 2026-04-21 21:08 | 34.46898 | -117.32700 | 27291 ft | 551 kts | 71° |
| 2026-04-21 21:08 | 34.48314 | -117.28330 | 27629 ft | 555 kts | 71° |
| 2026-04-21 21:08 | 34.49718 | -117.23990 | 27974 ft | 559 kts | 71° |
| 2026-04-21 21:08 | 34.51148 | -117.19559 | 28331 ft | 562 kts | 71° |
| 2026-04-21 21:09 | 34.52623 | -117.15202 | 28635 ft | 565 kts | 67° |
| 2026-04-21 21:09 | 34.54450 | -117.10927 | 29116 ft | 567 kts | 61° |
| 2026-04-21 21:09 | 34.56513 | -117.06888 | 29490 ft | 570 kts | 57° |
| 2026-04-21 21:09 | 34.58898 | -117.02998 | 29861 ft | 572 kts | 50° |
| 2026-04-21 21:10 | 34.61440 | -116.99329 | 30225 ft | 572 kts | 49° |
| 2026-04-21 21:10 | 34.64026 | -116.95664 | 30590 ft | 571 kts | 49° |
| 2026-04-21 21:10 | 34.66625 | -116.91969 | 30966 ft | 571 kts | 49° |
| 2026-04-21 21:10 | 34.69179 | -116.88296 | 31301 ft | 571 kts | 49° |
| 2026-04-21 21:11 | 34.71705 | -116.84622 | 31623 ft | 571 kts | 50° |
| 2026-04-21 21:11 | 34.74256 | -116.80884 | 31982 ft | 571 kts | 50° |
| 2026-04-21 21:11 | 34.76800 | -116.77143 | 32287 ft | 571 kts | 50° |
| 2026-04-21 21:11 | 34.79310 | -116.73451 | 32569 ft | 572 kts | 50° |
| 2026-04-21 21:12 | 34.81854 | -116.69707 | 32857 ft | 572 kts | 50° |
| 2026-04-21 21:12 | 34.84384 | -116.65991 | 32964 ft | 575 kts | 50° |
| 2026-04-21 21:12 | 34.89601 | -116.58602 | 32949 ft | 573 kts | 46° |
| 2026-04-21 21:13 | 34.94998 | -116.51521 | 32947 ft | 568 kts | 46° |
| 2026-04-21 21:13 | 35.00358 | -116.44492 | 32914 ft | 565 kts | 46° |
| 2026-04-21 21:14 | 35.05670 | -116.37400 | 32909 ft | 565 kts | 47° |
| 2026-04-21 21:14 | 35.10966 | -116.30263 | 32908 ft | 567 kts | 47° |
| 2026-04-21 21:15 | 35.16232 | -116.23153 | 32886 ft | 569 kts | 47° |
| 2026-04-21 21:15 | 35.21546 | -116.15974 | 32906 ft | 574 kts | 47° |
| 2026-04-21 21:16 | 35.26955 | -116.08653 | 32908 ft | 586 kts | 47° |
| 2026-04-21 21:16 | 35.32456 | -116.01193 | 32937 ft | 596 kts | 47° |
| 2026-04-21 21:17 | 35.38033 | -115.93612 | 32915 ft | 601 kts | 47° |
| 2026-04-21 21:17 | 35.43570 | -115.86066 | 32922 ft | 591 kts | 47° |
| 2026-04-21 21:18 | 35.49046 | -115.78586 | 32930 ft | 590 kts | 47° |
| 2026-04-21 21:18 | 35.54531 | -115.71080 | 32943 ft | 591 kts | 48° |
| 2026-04-21 21:19 | 35.60040 | -115.63524 | 32914 ft | 592 kts | 48° |
| 2026-04-21 21:19 | 35.65521 | -115.55987 | 32932 ft | 591 kts | 48° |
| 2026-04-21 21:20 | 35.71006 | -115.48430 | 32946 ft | 591 kts | 48° |
| 2026-04-21 21:20 | 35.76456 | -115.40899 | 32933 ft | 592 kts | 48° |
| 2026-04-21 21:21 | 35.81935 | -115.33303 | 32927 ft | 592 kts | 48° |
| 2026-04-21 21:21 | 35.87384 | -115.25734 | 32921 ft | 589 kts | 48° |
| 2026-04-21 21:22 | 35.92793 | -115.18204 | 32941 ft | 587 kts | 48° |
| 2026-04-21 21:22 | 35.98208 | -115.10648 | 32932 ft | 585 kts | 48° |
| 2026-04-21 21:23 | 36.03587 | -115.03126 | 32929 ft | 584 kts | 49° |
| 2026-04-21 21:23 | 36.08929 | -114.95639 | 32879 ft | 582 kts | 48° |
| 2026-04-21 21:24 | 36.14275 | -114.88128 | 32834 ft | 582 kts | 48° |
| 2026-04-21 21:24 | 36.19654 | -114.80665 | 32833 ft | 581 kts | 46° |
| 2026-04-21 21:25 | 36.25296 | -114.73460 | 32836 ft | 582 kts | 45° |
| 2026-04-21 21:25 | 36.31025 | -114.66304 | 32821 ft | 583 kts | 45° |
| 2026-04-21 21:26 | 36.36705 | -114.59139 | 32809 ft | 584 kts | 45° |
| 2026-04-21 21:26 | 36.42377 | -114.51909 | 32809 ft | 584 kts | 45° |
| 2026-04-21 21:27 | 36.48029 | -114.44673 | 32812 ft | 584 kts | 45° |
| 2026-04-21 21:27 | 36.53657 | -114.37459 | 32827 ft | 584 kts | 46° |
| 2026-04-21 21:28 | 36.59293 | -114.30224 | 32820 ft | 581 kts | 46° |
| 2026-04-21 21:29 | 36.67730 | -114.19365 | 32813 ft | 579 kts | 46° |
| 2026-04-21 21:29 | 36.73293 | -114.12183 | 32829 ft | 578 kts | 46° |
| 2026-04-21 21:30 | 36.78889 | -114.04943 | 32816 ft | 577 kts | 46° |
| 2026-04-21 21:30 | 36.84420 | -113.97771 | 32855 ft | 576 kts | 46° |
| 2026-04-21 21:31 | 36.89953 | -113.90578 | 32851 ft | 575 kts | 46° |
| 2026-04-21 21:31 | 36.95486 | -113.83372 | 32869 ft | 575 kts | 46° |
| 2026-04-21 21:32 | 37.01013 | -113.76158 | 32899 ft | 575 kts | 46° |
| 2026-04-21 21:32 | 37.06103 | -113.68457 | 32902 ft | 572 kts | 57° |
| 2026-04-21 21:33 | 37.10170 | -113.59908 | 32934 ft | 570 kts | 63° |
| 2026-04-21 21:33 | 37.14068 | -113.51264 | 32926 ft | 570 kts | 62° |
| 2026-04-21 21:34 | 37.18006 | -113.42647 | 32819 ft | 570 kts | 62° |
| 2026-04-21 21:34 | 37.21958 | -113.34073 | 32842 ft | 569 kts | 61° |
| 2026-04-21 21:35 | 37.25912 | -113.25488 | 32842 ft | 567 kts | 62° |
| 2026-04-21 21:35 | 37.29835 | -113.16933 | 32861 ft | 566 kts | 62° |
| 2026-04-21 21:36 | 37.33758 | -113.08345 | 32884 ft | 565 kts | 61° |
| 2026-04-21 21:36 | 37.37653 | -112.99796 | 32888 ft | 563 kts | 61° |
| 2026-04-21 21:37 | 37.41534 | -112.91260 | 32931 ft | 561 kts | 61° |
| 2026-04-21 21:37 | 37.45398 | -112.82735 | 32947 ft | 560 kts | 61° |
| 2026-04-21 21:38 | 37.49243 | -112.74230 | 32931 ft | 559 kts | 61° |
| 2026-04-21 21:38 | 37.53082 | -112.65720 | 32939 ft | 556 kts | 61° |
| 2026-04-21 21:39 | 37.56870 | -112.57300 | 32944 ft | 555 kts | 61° |
| 2026-04-21 21:39 | 37.60670 | -112.48827 | 33018 ft | 554 kts | 62° |
| 2026-04-21 21:40 | 37.64435 | -112.40413 | 33071 ft | 551 kts | 62° |
| 2026-04-21 21:40 | 37.68284 | -112.32063 | 33124 ft | 549 kts | 57° |
| 2026-04-21 21:41 | 37.73014 | -112.24485 | 33175 ft | 548 kts | 47° |
| 2026-04-21 21:41 | 37.78202 | -112.17475 | 33178 ft | 548 kts | 47° |
| 2026-04-21 21:42 | 37.83407 | -112.10411 | 33135 ft | 549 kts | 47° |
| 2026-04-21 21:42 | 37.88582 | -112.03287 | 33086 ft | 549 kts | 48° |
| 2026-04-21 21:43 | 37.93702 | -111.96179 | 33043 ft | 550 kts | 49° |
| 2026-04-21 21:43 | 37.98865 | -111.88994 | 32968 ft | 550 kts | 49° |
| 2026-04-21 21:44 | 38.04020 | -111.81815 | 32958 ft | 551 kts | 49° |
| 2026-04-21 21:44 | 38.09151 | -111.74654 | 32961 ft | 549 kts | 49° |
| 2026-04-21 21:45 | 38.14290 | -111.67468 | 32969 ft | 548 kts | 49° |
| 2026-04-21 21:45 | 38.19409 | -111.60292 | 32963 ft | 547 kts | 49° |
| 2026-04-21 21:46 | 38.24498 | -111.53141 | 32970 ft | 547 kts | 49° |
| 2026-04-21 21:46 | 38.29622 | -111.45926 | 32955 ft | 548 kts | 49° |
| 2026-04-21 21:47 | 38.34720 | -111.38730 | 32941 ft | 549 kts | 49° |
| 2026-04-21 21:47 | 38.39844 | -111.31482 | 32927 ft | 550 kts | 49° |
| 2026-04-21 21:48 | 38.44961 | -111.24226 | 32905 ft | 550 kts | 49° |
| 2026-04-21 21:48 | 38.50060 | -111.16983 | 32906 ft | 550 kts | 49° |
| 2026-04-21 21:49 | 38.55180 | -111.09690 | 32892 ft | 550 kts | 49° |
| 2026-04-21 21:49 | 38.60277 | -111.02411 | 32905 ft | 548 kts | 49° |
| 2026-04-21 21:50 | 38.65333 | -110.95176 | 32908 ft | 547 kts | 50° |
| 2026-04-21 21:50 | 38.70405 | -110.87901 | 32881 ft | 547 kts | 50° |
| 2026-04-21 21:51 | 38.75463 | -110.80630 | 32879 ft | 546 kts | 50° |
| 2026-04-21 21:51 | 38.80502 | -110.73369 | 32882 ft | 545 kts | 50° |
| 2026-04-21 21:52 | 38.85538 | -110.66096 | 32878 ft | 544 kts | 50° |
| 2026-04-21 21:52 | 38.90545 | -110.58849 | 32876 ft | 544 kts | 50° |
| 2026-04-21 21:53 | 38.95530 | -110.51616 | 32874 ft | 543 kts | 50° |
| 2026-04-21 21:53 | 39.00560 | -110.44300 | 32854 ft | 543 kts | 50° |
| 2026-04-21 21:54 | 39.05538 | -110.37045 | 32870 ft | 544 kts | 50° |
| 2026-04-21 21:54 | 39.10548 | -110.29727 | 32891 ft | 545 kts | 50° |
| 2026-04-21 21:55 | 39.15565 | -110.22382 | 32875 ft | 546 kts | 50° |
| 2026-04-21 21:55 | 39.20573 | -110.15028 | 32871 ft | 547 kts | 50° |
| 2026-04-21 21:56 | 39.25594 | -110.07639 | 32893 ft | 546 kts | 50° |
| 2026-04-21 21:56 | 39.30569 | -110.00304 | 32913 ft | 546 kts | 50° |
| 2026-04-21 21:57 | 39.35573 | -109.92906 | 32912 ft | 546 kts | 50° |
| 2026-04-21 21:57 | 39.40565 | -109.85509 | 32918 ft | 546 kts | 50° |
| 2026-04-21 21:58 | 39.45545 | -109.78112 | 32928 ft | 545 kts | 50° |
| 2026-04-21 21:58 | 39.50521 | -109.70703 | 32927 ft | 546 kts | 50° |
| 2026-04-21 21:59 | 39.55490 | -109.63289 | 32919 ft | 546 kts | 50° |
| 2026-04-21 21:59 | 39.59636 | -109.57088 | 32911 ft | 546 kts | 50° |
| 2026-04-21 22:00 | 39.64608 | -109.49636 | 32910 ft | 546 kts | 50° |
| 2026-04-21 22:00 | 39.69572 | -109.42178 | 32905 ft | 545 kts | 51° |
| 2026-04-21 22:01 | 39.74501 | -109.34752 | 32897 ft | 545 kts | 51° |
| 2026-04-21 22:01 | 39.79447 | -109.27285 | 32889 ft | 544 kts | 51° |
| 2026-04-21 22:02 | 39.84378 | -109.19823 | 32885 ft | 543 kts | 51° |
| 2026-04-21 22:02 | 39.89306 | -109.12348 | 32884 ft | 543 kts | 51° |
| 2026-04-21 22:03 | 39.94188 | -109.04924 | 32876 ft | 542 kts | 51° |
| 2026-04-21 22:03 | 39.99110 | -108.97421 | 32884 ft | 541 kts | 51° |
| 2026-04-21 22:04 | 40.03968 | -108.89999 | 32874 ft | 541 kts | 51° |
| 2026-04-21 22:04 | 40.08853 | -108.82517 | 32880 ft | 541 kts | 51° |
| 2026-04-21 22:05 | 40.13756 | -108.74985 | 32875 ft | 542 kts | 51° |
| 2026-04-21 22:05 | 40.18617 | -108.67504 | 32875 ft | 542 kts | 51° |
| 2026-04-21 22:06 | 40.23512 | -108.59955 | 32879 ft | 543 kts | 51° |
| 2026-04-21 22:06 | 40.28392 | -108.52407 | 32875 ft | 543 kts | 51° |
| 2026-04-21 22:07 | 40.33251 | -108.44873 | 32867 ft | 543 kts | 51° |
| 2026-04-21 22:07 | 40.38125 | -108.37297 | 32856 ft | 543 kts | 51° |
| 2026-04-21 22:08 | 40.42981 | -108.29731 | 32870 ft | 542 kts | 51° |
| 2026-04-21 22:08 | 40.47813 | -108.22184 | 32866 ft | 542 kts | 51° |
| 2026-04-21 22:09 | 40.52678 | -108.14567 | 32873 ft | 542 kts | 51° |
| 2026-04-21 22:09 | 40.57503 | -108.06992 | 32883 ft | 543 kts | 51° |
| 2026-04-21 22:10 | 40.62346 | -107.99372 | 32904 ft | 543 kts | 51° |
| 2026-04-21 22:10 | 40.67186 | -107.91738 | 32901 ft | 544 kts | 51° |
| 2026-04-21 22:11 | 40.72020 | -107.84093 | 32928 ft | 544 kts | 51° |
| 2026-04-21 22:11 | 40.76866 | -107.76409 | 32938 ft | 544 kts | 51° |
| 2026-04-21 22:12 | 40.81701 | -107.68726 | 32991 ft | 543 kts | 51° |
| 2026-04-21 22:12 | 40.86516 | -107.61053 | 33045 ft | 542 kts | 51° |
| 2026-04-21 22:13 | 40.91311 | -107.53394 | 33092 ft | 541 kts | 51° |
| 2026-04-21 22:13 | 40.96111 | -107.45708 | 33116 ft | 541 kts | 51° |
| 2026-04-21 22:14 | 41.00883 | -107.38046 | 33116 ft | 540 kts | 51° |
| 2026-04-21 22:14 | 41.05669 | -107.30343 | 33084 ft | 540 kts | 51° |
| 2026-04-21 22:15 | 41.10417 | -107.22682 | 33049 ft | 540 kts | 51° |
| 2026-04-21 22:15 | 41.15200 | -107.14947 | 33005 ft | 540 kts | 51° |
| 2026-04-21 22:16 | 41.19941 | -107.07258 | 32950 ft | 540 kts | 51° |
| 2026-04-21 22:16 | 41.24691 | -106.99532 | 32942 ft | 539 kts | 51° |